createdAt,value
2019-02-07T00:01:02.573Z,9.00
2019-02-07T00:03:29.313Z,12.40
2019-02-07T00:05:56.037Z,11.00
2019-02-07T00:08:22.801Z,7.67
2019-02-07T00:10:49.942Z,6.00
2019-02-07T00:13:17.091Z,6.00
2019-02-07T00:15:43.967Z,8.30
2019-02-07T00:18:11.083Z,6.07
2019-02-07T00:20:38.518Z,5.83
2019-02-07T00:23:08.774Z,6.77
2019-02-07T00:25:36.073Z,6.30
2019-02-07T00:28:04.514Z,5.73
2019-02-07T00:30:31.336Z,6.20
2019-02-07T00:32:58.317Z,5.43
2019-02-07T00:35:28.179Z,5.87
2019-02-07T00:37:55.041Z,5.30
2019-02-07T00:40:21.810Z,5.00
2019-02-07T00:42:48.565Z,7.53
2019-02-07T00:45:17.626Z,6.00
2019-02-07T00:47:46.224Z,5.70
2019-02-07T00:50:13.337Z,6.57
2019-02-07T00:52:40.590Z,6.77
2019-02-07T00:55:09.405Z,10.63
2019-02-07T00:57:36.778Z,13.63
2019-02-07T01:00:05.467Z,8.70
2019-02-07T01:02:32.739Z,10.83
2019-02-07T01:05:00.198Z,7.83
2019-02-07T01:07:27.141Z,9.10
2019-02-07T01:09:54.048Z,8.67
2019-02-07T01:12:20.898Z,9.93
2019-02-07T01:14:47.674Z,10.90
2019-02-07T01:17:14.565Z,10.67
2019-02-07T01:19:44.376Z,10.60
2019-02-07T01:22:11.123Z,10.93
2019-02-07T01:24:37.879Z,11.60
2019-02-07T01:27:04.744Z,11.60
2019-02-07T01:29:31.976Z,10.90
2019-02-07T01:31:59.122Z,12.83
2019-02-07T01:34:26.406Z,14.97
2019-02-07T01:36:53.286Z,12.77
2019-02-07T01:39:20.029Z,11.60
2019-02-07T01:41:46.805Z,10.17
2019-02-07T01:44:13.640Z,12.00
2019-02-07T01:46:40.619Z,6.90
2019-02-07T01:49:07.616Z,8.97
2019-02-07T01:51:37.460Z,7.20
2019-02-07T01:54:05.800Z,8.67
2019-02-07T01:56:32.748Z,10.43
2019-02-07T01:58:59.634Z,8.67
2019-02-07T02:01:26.491Z,11.70
2019-02-07T02:03:53.417Z,9.27
2019-02-07T02:06:20.218Z,9.60
2019-02-07T02:08:46.982Z,8.20
2019-02-07T02:11:13.774Z,8.90
2019-02-07T02:13:40.556Z,17.07
2019-02-07T02:16:07.762Z,9.20
2019-02-07T02:18:34.631Z,8.30
2019-02-07T02:21:01.542Z,8.90
2019-02-07T02:23:28.462Z,8.70
2019-02-07T02:25:55.216Z,8.63
2019-02-07T02:28:22.384Z,6.80
2019-02-07T02:30:49.181Z,9.30
2019-02-07T02:33:16.021Z,9.10
2019-02-07T02:35:42.923Z,10.73
2019-02-07T02:38:10.368Z,9.53
2019-02-07T02:40:37.120Z,10.87
2019-02-07T02:43:04.017Z,10.60
2019-02-07T02:45:37.705Z,13.37
2019-02-07T02:48:01.928Z,10.67
2019-02-07T02:50:28.883Z,10.00
2019-02-07T02:52:55.694Z,9.70
2019-02-07T02:55:42.408Z,10.03
2019-02-07T02:58:09.439Z,10.70
2019-02-07T03:00:55.038Z,10.70
2019-02-07T03:03:30.966Z,10.90
2019-02-07T03:06:15.765Z,10.47
2019-02-07T03:09:19.184Z,11.13
2019-02-07T03:12:05.660Z,12.73
2019-02-07T03:15:01.448Z,16.27
2019-02-07T03:17:46.674Z,12.80
2019-02-07T03:20:25.462Z,12.40
2019-02-07T03:23:10.282Z,9.80
2019-02-07T03:25:59.429Z,10.77
2019-02-07T03:28:44.670Z,11.13
2019-02-07T03:31:43.317Z,12.40
2019-02-07T03:34:28.861Z,11.80
2019-02-07T03:37:15.243Z,12.27
2019-02-07T03:40:04.613Z,12.00
2019-02-07T03:42:53.749Z,9.60
2019-02-07T03:46:02.395Z,11.40
2019-02-07T03:48:44.346Z,11.17
2019-02-07T03:51:31.019Z,13.73
2019-02-07T03:54:26.063Z,11.10
2019-02-07T03:57:18.638Z,10.80
2019-02-07T03:59:58.886Z,10.03
2019-02-07T04:02:57.343Z,10.87
2019-02-07T04:05:34.481Z,10.20
2019-02-07T04:08:26.607Z,13.23
2019-02-07T04:11:11.872Z,12.77
2019-02-07T04:14:04.164Z,12.63
2019-02-07T04:16:53.512Z,12.37
2019-02-07T04:19:55.129Z,11.53
2019-02-07T04:22:40.328Z,13.40
2019-02-07T04:25:25.753Z,14.37
2019-02-07T04:28:11.241Z,12.90
2019-02-07T04:31:03.681Z,13.63
2019-02-07T04:33:47.235Z,13.80
2019-02-07T04:36:39.722Z,14.50
2019-02-07T04:39:27.038Z,13.67
2019-02-07T04:42:12.040Z,17.30
2019-02-07T04:45:04.436Z,14.23
2019-02-07T04:47:49.980Z,16.67
2019-02-07T04:50:39.874Z,14.80
2019-02-07T04:53:44.605Z,15.73
2019-02-07T04:56:37.129Z,16.63
2019-02-07T04:59:21.215Z,17.20
2019-02-07T05:02:06.357Z,19.67
2019-02-07T05:04:59.553Z,18.37
2019-02-07T05:07:44.567Z,23.67
2019-02-07T05:10:29.643Z,26.57
2019-02-07T05:13:14.632Z,25.67
2019-02-07T05:16:04.529Z,24.43
2019-02-07T05:18:56.060Z,22.17
2019-02-07T05:21:40.857Z,25.53
2019-02-07T05:24:15.776Z,25.73
2019-02-07T05:27:04.856Z,28.40
2019-02-07T05:29:53.757Z,25.00
2019-02-07T05:32:49.059Z,23.50
2019-02-07T05:35:26.268Z,25.50
2019-02-07T05:38:24.645Z,22.47
2019-02-07T05:41:14.618Z,25.63
2019-02-07T05:43:58.667Z,23.40
2019-02-07T05:46:51.057Z,23.93
2019-02-07T05:49:41.579Z,22.10
2019-02-07T05:52:34.047Z,29.60
2019-02-07T05:55:23.404Z,26.83
2019-02-07T05:58:08.479Z,23.80
2019-02-07T06:00:57.158Z,27.30
2019-02-07T06:03:42.151Z,27.33
2019-02-07T06:06:37.819Z,24.37
2019-02-07T06:09:26.547Z,23.97
2019-02-07T06:12:11.705Z,22.47
2019-02-07T06:14:57.115Z,21.67
2019-02-07T06:17:50.299Z,22.47
2019-02-07T06:20:28.640Z,25.03
2019-02-07T06:23:12.731Z,19.13
2019-02-07T06:26:11.461Z,20.13
2019-02-07T06:29:09.807Z,21.70
2019-02-07T06:32:06.905Z,21.70
2019-02-07T06:34:57.574Z,19.70
2019-02-07T06:37:43.982Z,18.20
2019-02-07T06:40:40.844Z,20.50
2019-02-07T06:43:30.536Z,18.67
2019-02-07T06:46:26.323Z,21.37
2019-02-07T06:49:11.653Z,17.73
2019-02-07T06:51:51.042Z,16.47
2019-02-07T06:54:43.665Z,24.20
2019-02-07T06:57:29.060Z,17.40
2019-02-07T07:00:34.609Z,20.00
2019-02-07T07:03:24.235Z,15.00
2019-02-07T07:06:06.337Z,18.80
2019-02-07T07:08:53.035Z,17.10
2019-02-07T07:11:42.409Z,16.53
2019-02-07T07:14:44.227Z,18.10
2019-02-07T07:17:35.374Z,19.13
2019-02-07T07:20:35.247Z,18.00
2019-02-07T07:23:27.781Z,17.30
2019-02-07T07:26:16.868Z,19.77
2019-02-07T07:29:01.924Z,18.57
2019-02-07T07:31:55.193Z,20.37
2019-02-07T07:34:40.358Z,16.67
2019-02-07T07:37:39.186Z,22.77
2019-02-07T07:40:20.378Z,19.93
2019-02-07T07:43:01.590Z,17.90
2019-02-07T07:45:40.993Z,18.23
2019-02-07T07:48:41.091Z,17.10
2019-02-07T07:51:37.979Z,18.73
2019-02-07T07:54:37.300Z,16.90
2019-02-07T07:57:29.858Z,19.20
2019-02-07T08:00:19.086Z,19.07
2019-02-07T08:03:15.116Z,20.50
2019-02-07T08:06:02.299Z,16.97
2019-02-07T08:08:47.284Z,17.23
2019-02-07T08:11:39.703Z,18.70
2019-02-07T08:14:15.392Z,15.90
2019-02-07T08:16:59.194Z,20.40
2019-02-07T08:19:46.235Z,20.43
2019-02-07T08:22:31.467Z,16.53
2019-02-07T08:25:20.585Z,17.60
2019-02-07T08:28:05.987Z,16.13
2019-02-07T08:30:55.261Z,16.00
2019-02-07T08:33:54.306Z,18.80
2019-02-07T08:36:39.496Z,16.10
2019-02-07T08:39:37.466Z,15.67
2019-02-07T08:42:36.170Z,15.00
2019-02-07T08:45:22.520Z,14.80
2019-02-07T08:47:59.429Z,15.50
2019-02-07T08:50:44.881Z,15.40
2019-02-07T08:53:28.429Z,16.23
2019-02-07T08:56:23.888Z,18.00
2019-02-07T08:59:04.454Z,16.10
2019-02-07T09:01:54.578Z,14.73
2019-02-07T09:04:43.204Z,16.47
2019-02-07T09:07:41.761Z,18.20
2019-02-07T09:13:32.467Z,17.13
2019-02-07T09:16:13.260Z,20.60
2019-02-07T09:19:05.476Z,15.53
2019-02-07T09:21:46.872Z,21.23
2019-02-07T09:24:33.340Z,15.13
2019-02-07T09:27:18.335Z,18.17
2019-02-07T09:30:03.447Z,13.17
2019-02-07T09:33:00.573Z,15.13
2019-02-07T09:35:42.496Z,17.07
2019-02-07T09:38:27.540Z,16.13
2019-02-07T09:41:20.147Z,22.87
2019-02-07T09:44:24.671Z,16.67
2019-02-07T09:47:10.294Z,16.40
2019-02-07T09:49:46.826Z,16.80
2019-02-07T09:52:44.896Z,19.83
2019-02-07T09:55:22.630Z,18.80
2019-02-07T09:58:07.706Z,19.73
2019-02-07T10:00:57.282Z,13.87
2019-02-07T10:03:33.538Z,16.27
2019-02-07T10:06:18.620Z,19.17
2019-02-07T10:09:05.228Z,14.67
2019-02-07T10:11:51.630Z,14.93
2019-02-07T10:14:34.746Z,16.43
2019-02-07T10:17:19.912Z,16.23
2019-02-07T10:20:18.641Z,14.90
2019-02-07T10:23:03.666Z,13.57
2019-02-07T10:25:52.417Z,16.00
2019-02-07T10:28:54.096Z,12.97
2019-02-07T10:31:46.472Z,13.43
2019-02-07T10:34:35.835Z,12.10
2019-02-07T10:37:21.056Z,12.23
2019-02-07T10:40:11.089Z,14.43
2019-02-07T10:42:51.338Z,14.60
2019-02-07T10:45:44.806Z,15.40
2019-02-07T10:48:31.283Z,14.73
2019-02-07T10:51:28.108Z,13.97
2019-02-07T10:54:20.819Z,14.30
2019-02-07T10:57:13.595Z,15.10
2019-02-07T10:59:50.922Z,15.63
2019-02-07T11:02:32.722Z,16.53
2019-02-07T11:05:14.788Z,12.90
2019-02-07T11:08:03.101Z,13.97
2019-02-07T11:10:46.580Z,15.43
2019-02-07T11:13:38.576Z,15.97
2019-02-07T11:16:18.525Z,15.70
2019-02-07T11:19:03.476Z,15.10
2019-02-07T11:21:43.069Z,14.87
2019-02-07T11:24:29.987Z,15.33
2019-02-07T11:27:16.646Z,18.10
2019-02-07T11:30:08.855Z,16.13
2019-02-07T11:32:46.700Z,17.07
2019-02-07T11:35:31.602Z,13.33
2019-02-07T11:38:24.321Z,15.67
2019-02-07T11:41:16.520Z,14.20
2019-02-07T11:44:06.706Z,15.70
2019-02-07T11:47:05.669Z,14.17
2019-02-07T11:49:51.903Z,14.17
2019-02-07T11:52:41.395Z,16.77
2019-02-07T11:55:27.813Z,14.73
2019-02-07T11:58:06.537Z,17.60
2019-02-07T12:00:51.659Z,19.87
2019-02-07T12:03:33.163Z,16.80
2019-02-07T12:06:25.642Z,20.47
2019-02-07T12:09:01.792Z,23.93
2019-02-07T12:12:03.399Z,15.47
2019-02-07T12:14:48.085Z,13.47
2019-02-07T12:17:34.827Z,13.87
2019-02-07T12:20:23.878Z,14.33
2019-02-07T12:23:08.839Z,13.63
2019-02-07T12:25:48.158Z,11.60
2019-02-07T12:28:46.909Z,13.17
2019-02-07T12:31:31.837Z,12.47
2019-02-07T12:34:05.342Z,14.00
2019-02-07T12:36:51.716Z,13.27
2019-02-07T12:39:36.783Z,13.00
2019-02-07T12:42:26.167Z,14.90
2019-02-07T12:45:17.402Z,12.87
2019-02-07T12:48:04.119Z,13.70
2019-02-07T12:51:08.647Z,13.13
2019-02-07T12:54:03.335Z,17.83
2019-02-07T12:57:01.654Z,14.30
2019-02-07T12:59:57.888Z,16.20
2019-02-07T13:02:47.353Z,12.83
2019-02-07T13:05:43.137Z,15.30
2019-02-07T13:08:25.797Z,17.70
2019-02-07T13:10:58.947Z,13.13
2019-02-07T13:13:37.177Z,12.50
2019-02-07T13:16:23.775Z,12.40
2019-02-07T13:19:22.243Z,12.17
2019-02-07T13:21:59.264Z,12.80
2019-02-07T13:24:48.011Z,10.60
2019-02-07T13:27:34.503Z,12.40
2019-02-07T13:30:30.438Z,11.73
2019-02-07T13:33:22.329Z,11.87
2019-02-07T13:36:00.512Z,13.33
2019-02-07T13:38:59.907Z,12.53
2019-02-07T13:41:52.823Z,16.40
2019-02-07T13:44:39.115Z,14.67
2019-02-07T13:47:44.281Z,15.13
2019-02-07T13:50:32.501Z,17.47
2019-02-07T13:53:34.010Z,13.00
2019-02-07T13:56:13.385Z,10.90
2019-02-07T13:59:04.489Z,13.83
2019-02-07T14:01:51.397Z,14.90
2019-02-07T14:04:47.815Z,16.10
2019-02-07T14:07:32.702Z,14.40
2019-02-07T14:10:08.203Z,14.63
2019-02-07T14:13:04.156Z,14.13
2019-02-07T14:15:53.540Z,15.30
2019-02-07T14:18:38.671Z,14.00
2019-02-07T14:21:24.271Z,11.50
2019-02-07T14:24:20.444Z,18.60
2019-02-07T14:26:55.560Z,11.50
2019-02-07T14:29:43.835Z,10.60
2019-02-07T14:32:33.958Z,16.13
2019-02-07T14:35:12.504Z,10.13
2019-02-07T14:37:50.816Z,13.47
2019-02-07T14:40:27.601Z,10.33
2019-02-07T14:43:09.358Z,16.33
2019-02-07T14:46:01.750Z,9.83
2019-02-07T14:48:29.432Z,18.47
2019-02-07T14:50:56.533Z,14.00
2019-02-07T14:53:23.569Z,15.70
2019-02-07T14:55:50.744Z,14.13
2019-02-07T14:58:18.182Z,14.10
2019-02-07T15:00:45.094Z,15.17
2019-02-07T15:03:12.040Z,16.90
2019-02-07T15:05:39.464Z,17.77
2019-02-07T15:08:06.392Z,14.50
2019-02-07T15:10:33.240Z,14.53
2019-02-07T15:13:01.342Z,16.90
2019-02-07T15:15:28.387Z,17.10
2019-02-07T15:17:55.892Z,16.80
2019-02-07T15:20:26.288Z,16.40
2019-02-07T15:22:51.763Z,16.40
2019-02-07T15:25:20.816Z,13.60
2019-02-07T15:27:47.843Z,12.60
2019-02-07T15:30:15.820Z,16.03
2019-02-07T15:32:43.228Z,16.40
2019-02-07T15:35:16.858Z,15.23
2019-02-07T15:37:44.120Z,13.73
2019-02-07T15:40:13.194Z,17.57
2019-02-07T15:42:40.240Z,14.00
2019-02-07T15:45:08.808Z,14.20
2019-02-07T15:47:37.181Z,13.10
2019-02-07T15:50:05.381Z,15.10
2019-02-07T15:52:34.826Z,13.93
2019-02-07T15:55:03.312Z,12.53
2019-02-07T15:57:30.534Z,15.17
2019-02-07T16:00:00.454Z,26.60
2019-02-07T16:02:31.697Z,16.30
2019-02-07T16:05:00.542Z,13.27
2019-02-07T16:07:27.568Z,12.40
2019-02-07T16:09:56.624Z,13.00
2019-02-07T16:12:26.295Z,10.17
2019-02-07T16:14:53.122Z,13.70
2019-02-07T16:17:20.634Z,11.93
2019-02-07T16:19:48.958Z,13.03
2019-02-07T16:22:16.072Z,14.33
2019-02-07T16:24:43.030Z,14.67
2019-02-07T16:27:09.912Z,10.87
2019-02-07T16:29:37.408Z,17.07
2019-02-07T16:32:04.316Z,14.10
2019-02-07T16:34:31.198Z,18.80
2019-02-07T16:36:58.147Z,12.60
2019-02-07T16:39:25.810Z,13.47
2019-02-07T16:41:52.680Z,12.40
2019-02-07T16:44:19.582Z,16.53
2019-02-07T16:46:46.801Z,11.90
2019-02-07T16:49:13.737Z,18.03
2019-02-07T16:51:41.668Z,16.40
2019-02-07T16:54:08.794Z,14.00
2019-02-07T16:56:35.647Z,14.50
2019-02-07T16:59:03.300Z,16.50
2019-02-07T17:01:30.078Z,16.50
2019-02-07T17:03:57.002Z,12.70
2019-02-07T17:06:24.096Z,10.73
2019-02-07T17:08:50.982Z,16.07
2019-02-07T17:11:19.054Z,16.00
2019-02-07T17:13:47.447Z,11.70
2019-02-07T17:16:14.940Z,13.97
2019-02-07T17:18:41.844Z,13.13
2019-02-07T17:21:12.550Z,14.00
2019-02-07T17:23:37.504Z,14.40
2019-02-07T17:26:04.382Z,16.70
2019-02-07T17:28:31.214Z,11.17
2019-02-07T17:30:57.994Z,14.73
2019-02-07T17:33:25.154Z,15.40
2019-02-07T17:35:52.077Z,16.73
2019-02-07T17:38:18.870Z,15.87
2019-02-07T17:40:46.061Z,15.13
2019-02-07T17:43:12.945Z,15.10
2019-02-07T17:45:40.305Z,21.00
2019-02-07T17:48:08.309Z,16.10
2019-02-07T17:50:35.469Z,14.33
2019-02-07T17:53:03.582Z,10.30
2019-02-07T17:55:32.754Z,15.03
2019-02-07T17:58:03.138Z,15.67
2019-02-07T18:00:46.027Z,16.57
2019-02-07T18:03:12.776Z,13.80
2019-02-07T18:05:40.079Z,15.20
2019-02-07T18:08:07.681Z,11.43
2019-02-07T18:10:34.554Z,15.90
2019-02-07T18:13:02.201Z,12.37
2019-02-07T18:15:29.388Z,11.47
2019-02-07T18:17:57.869Z,14.63
2019-02-07T18:20:24.756Z,17.57
2019-02-07T18:22:54.568Z,16.90
2019-02-07T18:25:21.393Z,17.50
2019-02-07T18:27:48.367Z,13.20
2019-02-07T18:30:16.746Z,20.17
2019-02-07T18:32:43.739Z,14.93
2019-02-07T18:35:10.508Z,14.47
2019-02-07T18:37:37.323Z,16.20
2019-02-07T18:40:05.406Z,12.60
2019-02-07T18:42:32.351Z,21.40
2019-02-07T18:45:01.105Z,16.30
2019-02-07T18:47:28.103Z,16.53
2019-02-07T18:49:55.429Z,17.30
2019-02-07T18:52:22.423Z,13.80
2019-02-07T18:54:51.965Z,14.10
2019-02-07T18:57:18.741Z,15.83
2019-02-07T18:59:45.808Z,17.83
2019-02-07T19:02:14.797Z,16.10
2019-02-07T19:04:42.098Z,10.57
2019-02-07T19:07:09.174Z,14.80
2019-02-07T19:09:36.051Z,12.83
2019-02-07T19:12:04.668Z,15.63
2019-02-07T19:14:31.574Z,16.80
2019-02-07T19:16:59.650Z,16.87
2019-02-07T19:19:29.193Z,14.43
2019-02-07T19:21:57.484Z,12.97
2019-02-07T19:24:24.682Z,12.87
2019-02-07T19:26:51.547Z,13.50
2019-02-07T19:29:18.418Z,15.80
2019-02-07T19:31:45.191Z,15.67
2019-02-07T19:34:12.113Z,13.03
2019-02-07T19:36:38.933Z,17.40
2019-02-07T19:39:08.408Z,15.43
2019-02-07T19:41:35.493Z,17.90
2019-02-07T19:44:02.925Z,11.90
2019-02-07T19:46:29.833Z,11.47
2019-02-07T19:48:59.919Z,16.30
2019-02-07T19:51:26.894Z,13.50
2019-02-07T19:53:56.093Z,17.57
2019-02-07T19:56:23.199Z,14.60
2019-02-07T19:58:50.004Z,17.10
2019-02-07T20:01:20.503Z,11.27
2019-02-07T20:03:47.258Z,10.13
2019-02-07T20:06:18.961Z,14.73
2019-02-07T20:08:46.105Z,10.60
2019-02-07T20:11:12.882Z,9.40
2019-02-07T20:13:39.650Z,11.50
2019-02-07T20:16:06.581Z,13.10
2019-02-07T20:18:33.554Z,14.43
2019-02-07T20:21:00.708Z,11.43
2019-02-07T20:23:27.630Z,11.60
2019-02-07T20:25:54.425Z,12.43
2019-02-07T20:28:21.531Z,10.30
2019-02-07T20:33:16.518Z,10.50
2019-02-07T20:35:43.304Z,9.23
2019-02-07T20:38:12.216Z,12.90
2019-02-07T20:40:39.637Z,11.90
2019-02-07T20:43:06.984Z,10.77
2019-02-07T20:45:34.199Z,6.37
2019-02-07T20:48:01.380Z,8.03
2019-02-07T20:50:29.563Z,5.33
2019-02-07T20:52:56.483Z,9.43
2019-02-07T20:55:23.253Z,8.43
2019-02-07T20:57:50.361Z,7.80
2019-02-07T21:00:29.041Z,8.23
2019-02-07T21:02:56.166Z,14.17
2019-02-07T21:05:23.183Z,11.53
2019-02-07T21:07:50.084Z,9.03
2019-02-07T21:10:18.165Z,9.00
2019-02-07T21:12:45.031Z,6.37
2019-02-07T21:15:18.647Z,9.23
2019-02-07T21:17:43.075Z,10.30
2019-02-07T21:20:11.786Z,9.80
2019-02-07T21:22:38.702Z,5.17
2019-02-07T21:25:09.651Z,7.60
2019-02-07T21:27:36.419Z,11.80
2019-02-07T21:30:03.892Z,4.43
2019-02-07T21:32:31.091Z,9.90
2019-02-07T21:34:58.396Z,16.70
2019-02-07T21:37:25.701Z,6.67
2019-02-07T21:39:53.153Z,6.60
2019-02-07T21:42:22.453Z,7.27
2019-02-07T21:44:50.196Z,7.70
2019-02-07T21:47:17.554Z,11.57
2019-02-07T21:49:44.654Z,6.40
2019-02-07T21:52:11.851Z,5.90
2019-02-07T21:54:38.876Z,6.00
2019-02-07T21:57:06.108Z,6.33
2019-02-07T21:59:32.992Z,7.20
2019-02-07T22:01:59.866Z,10.73
2019-02-07T22:04:26.720Z,13.47
2019-02-07T22:06:53.600Z,8.00
2019-02-07T22:09:20.461Z,6.70
2019-02-07T22:11:47.208Z,8.03
2019-02-07T22:14:15.423Z,10.47
2019-02-07T22:16:42.293Z,8.40
2019-02-07T22:19:09.380Z,8.40
2019-02-07T22:21:36.166Z,8.10
2019-02-07T22:24:05.934Z,7.97
2019-02-07T22:26:32.676Z,7.87
2019-02-07T22:28:59.702Z,5.73
2019-02-07T22:31:26.700Z,10.43
2019-02-07T22:33:54.091Z,7.50
2019-02-07T22:36:20.967Z,10.13
2019-02-07T22:38:47.778Z,7.77
2019-02-07T22:41:14.502Z,9.27
2019-02-07T22:43:41.268Z,7.87
2019-02-07T22:46:08.076Z,7.83
2019-02-07T22:48:35.008Z,8.90
2019-02-07T22:51:01.891Z,11.43
2019-02-07T22:53:31.582Z,6.60
2019-02-07T22:55:58.710Z,7.80
2019-02-07T22:58:25.529Z,10.53
2019-02-07T23:01:23.315Z,7.17
2019-02-07T23:03:56.292Z,11.37
2019-02-07T23:06:23.020Z,11.57
2019-02-07T23:08:49.851Z,6.87
2019-02-07T23:11:16.611Z,11.87
2019-02-07T23:13:46.830Z,8.93
2019-02-07T23:16:13.597Z,8.30
2019-02-07T23:18:40.354Z,8.07
2019-02-07T23:21:07.290Z,7.93
2019-02-07T23:23:34.126Z,6.27
2019-02-07T23:26:00.861Z,7.90
2019-02-07T23:28:27.615Z,15.60
2019-02-07T23:30:54.398Z,15.70
2019-02-07T23:33:21.187Z,9.23
2019-02-07T23:35:47.997Z,8.53
2019-02-07T23:38:18.113Z,7.73
2019-02-07T23:40:45.019Z,9.90
2019-02-07T23:43:11.901Z,6.50
2019-02-07T23:45:38.664Z,11.77
2019-02-07T23:48:05.454Z,6.13
2019-02-07T23:50:32.475Z,8.60
2019-02-07T23:52:59.234Z,6.37
2019-02-07T23:55:26.008Z,15.03
2019-02-07T23:57:52.747Z,5.83
